sensor_id;sensor_type;location;lat;lon;timestamp;pressure;altitude;pressure_sealevel;temperature;humidity
72921;BME280;61064;51.654;5.476;2023-03-23T00:01:05;100262.81;;;12.13;85.75
72921;BME280;61064;51.654;5.476;2023-03-23T00:03:30;100291.13;;;12.25;85.58
72921;BME280;61064;51.654;5.476;2023-03-23T00:05:59;100261.97;;;12.08;85.38
72921;BME280;61064;51.654;5.476;2023-03-23T00:08:37;100292.00;;;12.27;85.44
72921;BME280;61064;51.654;5.476;2023-03-23T00:11:06;100268.13;;;12.13;85.25
72921;BME280;61064;51.654;5.476;2023-03-23T00:13:32;100256.59;;;12.11;85.26
72921;BME280;61064;51.654;5.476;2023-03-23T00:15:58;100221.19;;;11.97;85.02
72921;BME280;61064;51.654;5.476;2023-03-23T00:18:24;100270.69;;;12.25;84.92
72921;BME280;61064;51.654;5.476;2023-03-23T00:20:52;100273.31;;;12.30;85.07
72921;BME280;61064;51.654;5.476;2023-03-23T00:23:20;100293.75;;;12.29;85.03
72921;BME280;61064;51.654;5.476;2023-03-23T00:25:56;100295.53;;;12.29;84.97
72921;BME280;61064;51.654;5.476;2023-03-23T00:28:26;100300.88;;;12.30;84.83
72921;BME280;61064;51.654;5.476;2023-03-23T00:33:24;100265.41;;;12.18;84.70
72921;BME280;61064;51.654;5.476;2023-03-23T00:35:52;100294.59;;;12.34;84.71
72921;BME280;61064;51.654;5.476;2023-03-23T00:38:20;100302.59;;;12.34;84.74
72921;BME280;61064;51.654;5.476;2023-03-23T00:40:46;100196.47;;;11.81;84.54
72921;BME280;61064;51.654;5.476;2023-03-23T00:43:14;100278.69;;;12.25;84.78
72921;BME280;61064;51.654;5.476;2023-03-23T00:45:41;100269.84;;;12.20;84.46
72921;BME280;61064;51.654;5.476;2023-03-23T00:48:07;100291.88;;;12.37;84.44
72921;BME280;61064;51.654;5.476;2023-03-23T00:50:32;100275.09;;;12.26;84.33
72921;BME280;61064;51.654;5.476;2023-03-23T00:52:58;100291.97;;;12.31;84.38
72921;BME280;61064;51.654;5.476;2023-03-23T00:55:25;100292.81;;;12.33;84.52
72921;BME280;61064;51.654;5.476;2023-03-23T00:57:50;100161.81;;;11.77;84.39
72921;BME280;61064;51.654;5.476;2023-03-23T01:00:17;100208.59;;;12.11;84.47
72921;BME280;61064;51.654;5.476;2023-03-23T01:02:44;100212.03;;;12.22;84.56
72921;BME280;61064;51.654;5.476;2023-03-23T01:05:10;100178.47;;;12.03;84.53
72921;BME280;61064;51.654;5.476;2023-03-23T01:07:35;100222.63;;;12.30;84.95
72921;BME280;61064;51.654;5.476;2023-03-23T01:10:01;100125.47;;;11.66;84.71
72921;BME280;61064;51.654;5.476;2023-03-23T01:12:27;100216.41;;;12.26;84.84
72921;BME280;61064;51.654;5.476;2023-03-23T01:14:52;100200.66;;;12.05;85.06
72921;BME280;61064;51.654;5.476;2023-03-23T01:17:17;100195.47;;;11.90;85.08
72921;BME280;61064;51.654;5.476;2023-03-23T01:19:44;100220.06;;;12.19;85.29
72921;BME280;61064;51.654;5.476;2023-03-23T01:22:09;100213.84;;;12.19;85.19
72921;BME280;61064;51.654;5.476;2023-03-23T01:24:34;100200.63;;;12.08;85.27
72921;BME280;61064;51.654;5.476;2023-03-23T01:27:00;100205.03;;;12.12;85.29
72921;BME280;61064;51.654;5.476;2023-03-23T01:29:34;100215.63;;;12.18;85.32
72921;BME280;61064;51.654;5.476;2023-03-23T01:32:00;100192.59;;;12.13;85.34
72921;BME280;61064;51.654;5.476;2023-03-23T01:34:25;100202.31;;;12.20;85.23
72921;BME280;61064;51.654;5.476;2023-03-23T01:36:51;100208.53;;;12.20;85.05
72921;BME280;61064;51.654;5.476;2023-03-23T01:39:16;100162.44;;;12.04;85.13
72921;BME280;61064;51.654;5.476;2023-03-23T01:41:42;100157.16;;;12.00;85.05
72921;BME280;61064;51.654;5.476;2023-03-23T01:46:42;100198.69;;;12.25;84.98
72921;BME280;61064;51.654;5.476;2023-03-23T01:49:18;100172.91;;;12.21;84.90
72921;BME280;61064;51.654;5.476;2023-03-23T01:51:51;100173.84;;;12.19;84.63
72921;BME280;61064;51.654;5.476;2023-03-23T01:54:18;100193.19;;;12.37;84.83
72921;BME280;61064;51.654;5.476;2023-03-23T01:56:50;100180.84;;;12.29;84.85
72921;BME280;61064;51.654;5.476;2023-03-23T01:59:17;100185.16;;;12.40;84.59
72921;BME280;61064;51.654;5.476;2023-03-23T02:01:44;100149.03;;;12.14;84.63
72921;BME280;61064;51.654;5.476;2023-03-23T02:04:16;100183.38;;;12.42;84.70
72921;BME280;61064;51.654;5.476;2023-03-23T02:06:43;100139.13;;;12.23;84.33
72921;BME280;61064;51.654;5.476;2023-03-23T02:09:10;100158.56;;;12.33;84.63
72921;BME280;61064;51.654;5.476;2023-03-23T02:11:36;100175.31;;;12.44;84.50
72921;BME280;61064;51.654;5.476;2023-03-23T02:14:02;100148.84;;;12.29;84.56
72921;BME280;61064;51.654;5.476;2023-03-23T02:33:15;100168.97;;;12.54;83.99
72921;BME280;61064;51.654;5.476;2023-03-23T02:36:19;100160.97;;;12.56;84.01
72921;BME280;61064;51.654;5.476;2023-03-23T02:39:02;100176.06;;;12.57;83.88
72921;BME280;61064;51.654;5.476;2023-03-23T02:41:33;100159.16;;;12.58;83.79
72921;BME280;61064;51.654;5.476;2023-03-23T02:44:02;100156.44;;;12.61;83.82
72921;BME280;61064;51.654;5.476;2023-03-23T02:46:28;100151.09;;;12.62;83.91
72921;BME280;61064;51.654;5.476;2023-03-23T02:48:56;100159.13;;;12.61;83.58
72921;BME280;61064;51.654;5.476;2023-03-23T02:51:24;100158.19;;;12.65;83.41
72921;BME280;61064;51.654;5.476;2023-03-23T02:53:51;100115.81;;;12.42;83.29
72921;BME280;61064;51.654;5.476;2023-03-23T02:56:26;100158.13;;;12.68;83.25
72921;BME280;61064;51.654;5.476;2023-03-23T02:58:54;100153.69;;;12.70;83.09
72921;BME280;61064;51.654;5.476;2023-03-23T03:03:52;100141.31;;;12.63;83.08
72921;BME280;61064;51.654;5.476;2023-03-23T03:06:33;100131.53;;;12.60;83.01
72921;BME280;61064;51.654;5.476;2023-03-23T03:09:13;100121.81;;;12.58;82.71
72921;BME280;61064;51.654;5.476;2023-03-23T03:11:46;100176.66;;;12.80;82.74
72921;BME280;61064;51.654;5.476;2023-03-23T03:14:19;100135.91;;;12.67;82.61
72921;BME280;61064;51.654;5.476;2023-03-23T03:19:44;100157.16;;;12.75;82.42
72921;BME280;61064;51.654;5.476;2023-03-23T03:22:11;100114.69;;;12.57;82.51
72921;BME280;61064;51.654;5.476;2023-03-23T03:24:38;100089.91;;;12.48;82.31
72921;BME280;61064;51.654;5.476;2023-03-23T03:27:11;100120.84;;;12.63;82.22
72921;BME280;61064;51.654;5.476;2023-03-23T03:29:40;100160.50;;;12.89;82.24
72921;BME280;61064;51.654;5.476;2023-03-23T03:32:08;100139.31;;;12.77;82.30
72921;BME280;61064;51.654;5.476;2023-03-23T03:34:35;100133.16;;;12.75;82.06
72921;BME280;61064;51.654;5.476;2023-03-23T03:37:00;100159.56;;;12.93;82.08
72921;BME280;61064;51.654;5.476;2023-03-23T03:39:29;100152.44;;;12.93;81.88
72921;BME280;61064;51.654;5.476;2023-03-23T03:41:55;100102.19;;;12.62;81.89
72921;BME280;61064;51.654;5.476;2023-03-23T03:44:20;100171.13;;;12.93;81.76
72921;BME280;61064;51.654;5.476;2023-03-23T03:46:46;100142.81;;;12.82;81.69
72921;BME280;61064;51.654;5.476;2023-03-23T03:49:11;100101.34;;;12.58;81.57
72921;BME280;61064;51.654;5.476;2023-03-23T03:51:39;100161.31;;;12.94;81.62
72921;BME280;61064;51.654;5.476;2023-03-23T03:54:06;100150.72;;;12.88;81.54
72921;BME280;61064;51.654;5.476;2023-03-23T03:56:31;100123.38;;;12.72;81.43
72921;BME280;61064;51.654;5.476;2023-03-23T03:59:01;100163.13;;;12.93;81.47
72921;BME280;61064;51.654;5.476;2023-03-23T04:01:27;100133.09;;;12.78;81.62
72921;BME280;61064;51.654;5.476;2023-03-23T04:03:53;100137.59;;;12.76;81.36
72921;BME280;61064;51.654;5.476;2023-03-23T04:06:20;100154.34;;;12.84;81.23
72921;BME280;61064;51.654;5.476;2023-03-23T04:08:46;100175.56;;;12.93;81.11
72921;BME280;61064;51.654;5.476;2023-03-23T04:11:13;100163.97;;;12.96;80.91
72921;BME280;61064;51.654;5.476;2023-03-23T04:13:39;100155.97;;;12.97;80.79
72921;BME280;61064;51.654;5.476;2023-03-23T04:16:05;100115.44;;;12.69;80.65
72921;BME280;61064;51.654;5.476;2023-03-23T04:18:32;100143.75;;;12.79;80.36
72921;BME280;61064;51.654;5.476;2023-03-23T04:20:59;100145.44;;;12.85;80.29
72921;BME280;61064;51.654;5.476;2023-03-23T04:23:28;100176.44;;;12.98;80.32
72921;BME280;61064;51.654;5.476;2023-03-23T04:25:56;100163.09;;;12.97;80.24
72921;BME280;61064;51.654;5.476;2023-03-23T04:28:23;100178.22;;;12.96;80.41
72921;BME280;61064;51.654;5.476;2023-03-23T04:30:52;100130.59;;;12.66;79.99
72921;BME280;61064;51.654;5.476;2023-03-23T04:33:25;100188.03;;;12.94;79.88
72921;BME280;61064;51.654;5.476;2023-03-23T04:35:56;100175.66;;;12.88;79.89
72921;BME280;61064;51.654;5.476;2023-03-23T04:38:22;100190.69;;;12.94;79.65
72921;BME280;61064;51.654;5.476;2023-03-23T04:40:51;100141.31;;;12.63;79.73
72921;BME280;61064;51.654;5.476;2023-03-23T04:43:22;100197.88;;;12.89;79.57
72921;BME280;61064;51.654;5.476;2023-03-23T04:45:55;100172.28;;;12.74;79.75
72921;BME280;61064;51.654;5.476;2023-03-23T04:48:25;100152.00;;;12.60;79.35
72921;BME280;61064;51.654;5.476;2023-03-23T04:50:52;100194.31;;;12.91;79.38
72921;BME280;61064;51.654;5.476;2023-03-23T04:53:18;100215.69;;;12.90;79.37
72921;BME280;61064;51.654;5.476;2023-03-23T04:55:44;100192.53;;;12.89;79.31
72921;BME280;61064;51.654;5.476;2023-03-23T04:58:10;100178.47;;;12.76;79.33
72921;BME280;61064;51.654;5.476;2023-03-23T05:00:37;100170.47;;;12.76;79.16
72921;BME280;61064;51.654;5.476;2023-03-23T05:03:03;100189.03;;;12.87;79.15
72921;BME280;61064;51.654;5.476;2023-03-23T05:05:29;100190.81;;;12.86;79.07
72921;BME280;61064;51.654;5.476;2023-03-23T05:07:55;100188.16;;;12.86;79.23
72921;BME280;61064;51.654;5.476;2023-03-23T05:10:22;100196.19;;;12.83;79.08
72921;BME280;61064;51.654;5.476;2023-03-23T05:12:47;100161.69;;;12.68;79.16
72921;BME280;61064;51.654;5.476;2023-03-23T05:15:14;100177.63;;;12.74;79.13
72921;BME280;61064;51.654;5.476;2023-03-23T05:17:41;100196.19;;;12.82;79.06
72921;BME280;61064;51.654;5.476;2023-03-23T05:20:10;100165.28;;;12.66;78.95
72921;BME280;61064;51.654;5.476;2023-03-23T05:22:37;100206.03;;;12.80;79.09
72921;BME280;61064;51.654;5.476;2023-03-23T05:25:04;100195.44;;;12.74;79.18
72921;BME280;61064;51.654;5.476;2023-03-23T05:27:31;100199.81;;;12.79;78.99
72921;BME280;61064;51.654;5.476;2023-03-23T05:29:58;100193.72;;;12.70;79.19
72921;BME280;61064;51.654;5.476;2023-03-23T05:32:27;100195.38;;;12.78;79.08
72921;BME280;61064;51.654;5.476;2023-03-23T05:34:57;100196.25;;;12.77;78.92
72921;BME280;61064;51.654;5.476;2023-03-23T05:37:24;100160.25;;;12.41;79.10
72921;BME280;61064;51.654;5.476;2023-03-23T05:39:50;100194.63;;;12.67;78.97
72921;BME280;61064;51.654;5.476;2023-03-23T05:42:22;100193.66;;;12.71;78.74
72921;BME280;61064;51.654;5.476;2023-03-23T05:44:49;100179.63;;;12.57;78.97
72921;BME280;61064;51.654;5.476;2023-03-23T05:47:14;100206.97;;;12.76;78.66
72921;BME280;61064;51.654;5.476;2023-03-23T05:49:39;100157.47;;;12.52;78.76
72921;BME280;61064;51.654;5.476;2023-03-23T05:52:05;100173.41;;;12.58;78.99
72921;BME280;61064;51.654;5.476;2023-03-23T05:54:30;100181.34;;;12.60;78.92
72921;BME280;61064;51.654;5.476;2023-03-23T05:56:56;100168.97;;;12.56;78.81
72921;BME280;61064;51.654;5.476;2023-03-23T05:59:22;100221.28;;;12.69;78.66
72921;BME280;61064;51.654;5.476;2023-03-23T06:01:47;100220.31;;;12.76;78.71
72921;BME280;61064;51.654;5.476;2023-03-23T06:04:12;100159.25;;;12.48;78.76
72921;BME280;61064;51.654;5.476;2023-03-23T06:06:39;100173.53;;;12.47;78.84
72921;BME280;61064;51.654;5.476;2023-03-23T06:09:06;100215.06;;;12.70;78.96
72921;BME280;61064;51.654;5.476;2023-03-23T06:11:32;100186.81;;;12.52;78.93
72921;BME280;61064;51.654;5.476;2023-03-23T06:13:57;100184.22;;;12.44;78.75
72921;BME280;61064;51.654;5.476;2023-03-23T06:16:23;100178.91;;;12.43;79.06
72921;BME280;61064;51.654;5.476;2023-03-23T06:18:48;100190.50;;;12.42;78.98
72921;BME280;61064;51.654;5.476;2023-03-23T06:21:15;100248.88;;;12.68;78.98
72921;BME280;61064;51.654;5.476;2023-03-23T06:23:43;100119.03;;;11.93;79.01
72921;BME280;61064;51.654;5.476;2023-03-23T06:26:10;100243.66;;;12.59;78.99
72921;BME280;61064;51.654;5.476;2023-03-23T06:28:36;100230.50;;;12.40;78.78
72921;BME280;61064;51.654;5.476;2023-03-23T06:31:05;100172.09;;;12.16;78.89
72921;BME280;61064;51.654;5.476;2023-03-23T06:33:35;100162.38;;;12.14;78.75
72921;BME280;61064;51.654;5.476;2023-03-23T06:36:02;100265.72;;;12.73;78.79
72921;BME280;61064;51.654;5.476;2023-03-23T06:38:27;100165.94;;;12.13;78.82
72921;BME280;61064;51.654;5.476;2023-03-23T06:40:53;100234.91;;;12.46;78.78
72921;BME280;61064;51.654;5.476;2023-03-23T06:43:19;100247.28;;;12.50;78.90
72921;BME280;61064;51.654;5.476;2023-03-23T06:45:45;100292.47;;;12.70;78.88
72921;BME280;61064;51.654;5.476;2023-03-23T06:48:10;100178.47;;;12.03;78.88
72921;BME280;61064;51.654;5.476;2023-03-23T06:50:35;100271.25;;;12.56;78.97
72921;BME280;61064;51.654;5.476;2023-03-23T06:53:01;100272.13;;;12.57;79.00
72921;BME280;61064;51.654;5.476;2023-03-23T06:55:27;100290.81;;;12.57;79.13
72921;BME280;61064;51.654;5.476;2023-03-23T06:57:52;100284.66;;;12.48;79.30
72921;BME280;61064;51.654;5.476;2023-03-23T07:00:18;100275.81;;;12.43;79.72
72921;BME280;61064;51.654;5.476;2023-03-23T07:02:43;100307.75;;;12.51;79.67
72921;BME280;61064;51.654;5.476;2023-03-23T07:05:10;100314.03;;;12.47;79.82
72921;BME280;61064;51.654;5.476;2023-03-23T07:07:40;100312.31;;;12.41;80.19
72921;BME280;61064;51.654;5.476;2023-03-23T07:10:08;100313.31;;;12.31;80.38
72921;BME280;61064;51.654;5.476;2023-03-23T07:12:35;100291.25;;;12.11;80.72
72921;BME280;61064;51.654;5.476;2023-03-23T07:15:02;100314.25;;;12.21;80.95
72921;BME280;61064;51.654;5.476;2023-03-23T07:17:27;100289.59;;;11.95;81.17
72921;BME280;61064;51.654;5.476;2023-03-23T07:19:53;100297.59;;;11.95;81.47
72921;BME280;61064;51.654;5.476;2023-03-23T07:22:19;100278.19;;;11.76;81.67
72921;BME280;61064;51.654;5.476;2023-03-23T07:24:45;100322.47;;;11.97;81.91
72921;BME280;61064;51.654;5.476;2023-03-23T07:27:10;100321.63;;;11.89;82.13
72921;BME280;61064;51.654;5.476;2023-03-23T07:29:36;100271.16;;;11.64;82.45
72921;BME280;61064;51.654;5.476;2023-03-23T07:32:04;100302.97;;;11.89;82.53
72921;BME280;61064;51.654;5.476;2023-03-23T07:34:30;100316.31;;;11.89;82.84
72921;BME280;61064;51.654;5.476;2023-03-23T07:36:57;100278.19;;;11.81;82.84
72921;BME280;61064;51.654;5.476;2023-03-23T07:39:22;100310.97;;;11.90;82.75
72921;BME280;61064;51.654;5.476;2023-03-23T07:41:49;100312.75;;;11.90;82.81
72921;BME280;61064;51.654;5.476;2023-03-23T07:44:14;100310.09;;;11.88;82.78
72921;BME280;61064;51.654;5.476;2023-03-23T07:46:40;100290.63;;;11.71;82.71
72921;BME280;61064;51.654;5.476;2023-03-23T07:49:07;100282.72;;;11.62;82.49
72921;BME280;61064;51.654;5.476;2023-03-23T07:51:33;100240.34;;;11.22;82.20
72921;BME280;61064;51.654;5.476;2023-03-23T07:53:59;100315.63;;;11.58;82.03
72921;BME280;61064;51.654;5.476;2023-03-23T07:56:24;100291.78;;;11.34;81.95
72921;BME280;61064;51.654;5.476;2023-03-23T07:58:50;100323.72;;;11.35;81.85
72921;BME280;61064;51.654;5.476;2023-03-23T08:01:16;100277.72;;;11.07;81.82
72921;BME280;61064;51.654;5.476;2023-03-23T08:03:41;100245.03;;;10.75;81.76
72921;BME280;61064;51.654;5.476;2023-03-23T08:06:08;100316.75;;;11.14;81.62
72921;BME280;61064;51.654;5.476;2023-03-23T08:08:34;100320.31;;;11.07;81.64
72921;BME280;61064;51.654;5.476;2023-03-23T08:10:59;100356.66;;;11.19;81.75
72921;BME280;61064;51.654;5.476;2023-03-23T08:13:24;100353.97;;;11.16;81.75
72921;BME280;61064;51.654;5.476;2023-03-23T08:15:50;100342.50;;;10.99;81.80
72921;BME280;61064;51.654;5.476;2023-03-23T08:18:16;100371.78;;;11.06;81.91
72921;BME280;61064;51.654;5.476;2023-03-23T08:20:42;100344.34;;;10.84;82.07
72921;BME280;61064;51.654;5.476;2023-03-23T08:23:09;100346.09;;;10.92;82.02
72921;BME280;61064;51.654;5.476;2023-03-23T08:25:35;100346.09;;;10.90;82.11
72921;BME280;61064;51.654;5.476;2023-03-23T08:28:01;100330.09;;;10.93;82.13
72921;BME280;61064;51.654;5.476;2023-03-23T08:30:27;100310.63;;;10.82;82.07
72921;BME280;61064;51.654;5.476;2023-03-23T08:32:58;100380.59;;;11.17;82.24
72921;BME280;61064;51.654;5.476;2023-03-23T08:35:25;100332.78;;;10.92;82.27
72921;BME280;61064;51.654;5.476;2023-03-23T08:37:50;100361.94;;;11.20;82.34
72921;BME280;61064;51.654;5.476;2023-03-23T08:40:19;100377.03;;;11.23;82.28
72921;BME280;61064;51.654;5.476;2023-03-23T08:42:46;100362.84;;;11.25;82.46
72921;BME280;61064;51.654;5.476;2023-03-23T08:45:13;100357.53;;;11.25;82.36
72921;BME280;61064;51.654;5.476;2023-03-23T08:47:40;100358.38;;;11.29;82.52
72921;BME280;61064;51.654;5.476;2023-03-23T08:50:07;100366.34;;;11.34;82.59
72921;BME280;61064;51.654;5.476;2023-03-23T08:52:33;100368.97;;;11.38;82.59
72921;BME280;61064;51.654;5.476;2023-03-23T08:55:02;100377.84;;;11.45;82.33
72921;BME280;61064;51.654;5.476;2023-03-23T08:57:28;100333.56;;;11.18;82.08
72921;BME280;61064;51.654;5.476;2023-03-23T08:59:54;100381.38;;;11.47;82.12
72921;BME280;61064;51.654;5.476;2023-03-23T09:02:22;100330.91;;;11.15;82.15
72921;BME280;61064;51.654;5.476;2023-03-23T09:04:49;100400.91;;;11.50;82.08
72921;BME280;61064;51.654;5.476;2023-03-23T09:07:15;100371.66;;;11.37;82.06
72921;BME280;61064;51.654;5.476;2023-03-23T09:09:41;100376.09;;;11.41;82.05
72921;BME280;61064;51.654;5.476;2023-03-23T09:12:07;100385.75;;;11.55;81.94
72921;BME280;61064;51.654;5.476;2023-03-23T09:14:34;100364.47;;;11.49;81.91
72921;BME280;61064;51.654;5.476;2023-03-23T09:16:59;100342.28;;;11.49;81.87
72921;BME280;61064;51.654;5.476;2023-03-23T09:19:26;100342.28;;;11.53;81.70
72921;BME280;61064;51.654;5.476;2023-03-23T09:21:51;100380.34;;;11.77;81.67
72921;BME280;61064;51.654;5.476;2023-03-23T09:24:16;100361.69;;;11.80;81.57
72921;BME280;61064;51.654;5.476;2023-03-23T09:26:43;100329.72;;;11.77;81.66
72921;BME280;61064;51.654;5.476;2023-03-23T09:29:08;100363.25;;;12.13;81.53
72921;BME280;61064;51.654;5.476;2023-03-23T09:31:34;100356.09;;;12.16;81.26
72921;BME280;61064;51.654;5.476;2023-03-23T09:34:02;100396.72;;;12.48;81.08
72921;BME280;61064;51.654;5.476;2023-03-23T09:36:29;100370.97;;;12.44;80.67
72921;BME280;61064;51.654;5.476;2023-03-23T09:38:55;100372.69;;;12.52;80.46
72921;BME280;61064;51.654;5.476;2023-03-23T09:41:45;100405.34;;;12.76;80.55
72921;BME280;61064;51.654;5.476;2023-03-23T09:44:24;100396.34;;;12.89;80.18
72921;BME280;61064;51.654;5.476;2023-03-23T09:49:37;100390.94;;;12.94;79.63
72921;BME280;61064;51.654;5.476;2023-03-23T09:52:10;100415.69;;;13.10;79.56
72921;BME280;61064;51.654;5.476;2023-03-23T09:54:39;100401.47;;;13.14;79.50
72921;BME280;61064;51.654;5.476;2023-03-23T09:57:12;100419.16;;;13.22;79.38
72921;BME280;61064;51.654;5.476;2023-03-23T09:59:49;100412.84;;;13.29;79.38
72921;BME280;61064;51.654;5.476;2023-03-23T10:05:41;100418.81;;;13.51;79.08
72921;BME280;61064;51.654;5.476;2023-03-23T10:08:21;100401.94;;;13.48;78.64
72921;BME280;61064;51.654;5.476;2023-03-23T10:16:12;100426.72;;;13.60;77.46
72921;BME280;61064;51.654;5.476;2023-03-23T10:19:01;100422.25;;;13.62;77.64
72921;BME280;61064;51.654;5.476;2023-03-23T10:21:31;100392.09;;;13.51;78.01
72921;BME280;61064;51.654;5.476;2023-03-23T10:24:03;100395.59;;;13.56;77.70
72921;BME280;61064;51.654;5.476;2023-03-23T10:26:37;100421.97;;;13.82;77.42
72921;BME280;61064;51.654;5.476;2023-03-23T10:29:52;100429.06;;;13.85;77.14
72921;BME280;61064;51.654;5.476;2023-03-23T10:32:14;100411.38;;;13.76;76.86
72921;BME280;61064;51.654;5.476;2023-03-23T10:37:20;100434.19;;;14.01;76.50
72921;BME280;61064;51.654;5.476;2023-03-23T10:39:51;100439.47;;;14.07;76.18
72921;BME280;61064;51.654;5.476;2023-03-23T10:42:29;100413.78;;;13.94;75.89
72921;BME280;61064;51.654;5.476;2023-03-23T10:44:59;100414.69;;;13.93;76.03
72921;BME280;61064;51.654;5.476;2023-03-23T10:47:25;100427.03;;;14.03;75.90
72921;BME280;61064;51.654;5.476;2023-03-23T10:49:54;100394.38;;;13.82;75.77
72921;BME280;61064;51.654;5.476;2023-03-23T10:52:41;100411.91;;;13.99;75.47
72921;BME280;61064;51.654;5.476;2023-03-23T10:55:13;100445.69;;;14.09;74.89
72921;BME280;61064;51.654;5.476;2023-03-23T10:57:45;100421.72;;;14.02;75.31
72921;BME280;61064;51.654;5.476;2023-03-23T11:00:19;100419.78;;;14.11;75.15
72921;BME280;61064;51.654;5.476;2023-03-23T11:02:47;100430.28;;;14.24;74.81
72921;BME280;61064;51.654;5.476;2023-03-23T11:05:25;100428.44;;;14.29;74.50
72921;BME280;61064;51.654;5.476;2023-03-23T11:07:56;100402.56;;;14.28;74.17
72921;BME280;61064;51.654;5.476;2023-03-23T11:10:56;100424.44;;;14.57;74.20
72921;BME280;61064;51.654;5.476;2023-03-23T11:13:15;100398.66;;;14.53;73.38
72921;BME280;61064;51.654;5.476;2023-03-23T11:15:43;100424.25;;;14.69;73.58
72921;BME280;61064;51.654;5.476;2023-03-23T11:18:13;100423.16;;;14.81;73.38
72921;BME280;61064;51.654;5.476;2023-03-23T11:20:44;100422.00;;;14.94;72.94
72921;BME280;61064;51.654;5.476;2023-03-23T11:23:20;100425.34;;;15.07;72.67
72921;BME280;61064;51.654;5.476;2023-03-23T11:25:53;100422.47;;;15.16;72.13
72921;BME280;61064;51.654;5.476;2023-03-23T11:28:20;100380.75;;;15.04;72.13
72921;BME280;61064;51.654;5.476;2023-03-23T11:30:45;100408.94;;;15.23;71.54
72921;BME280;61064;51.654;5.476;2023-03-23T11:33:12;100431.94;;;15.36;71.32
72921;BME280;61064;51.654;5.476;2023-03-23T11:35:43;100417.13;;;15.16;70.94
72921;BME280;61064;51.654;5.476;2023-03-23T11:38:18;100411.94;;;15.08;70.64
72921;BME280;61064;51.654;5.476;2023-03-23T11:40:50;100436.63;;;15.24;70.93
72921;BME280;61064;51.654;5.476;2023-03-23T11:43:23;100338.44;;;14.75;71.04
72921;BME280;61064;51.654;5.476;2023-03-23T11:45:58;100439.84;;;15.43;70.84
72921;BME280;61064;51.654;5.476;2023-03-23T11:49:12;100333.59;;;14.95;70.30
72921;BME280;61064;51.654;5.476;2023-03-23T11:51:49;100430.81;;;15.48;69.78
72921;BME280;61064;51.654;5.476;2023-03-23T11:54:50;100434.44;;;15.44;70.11
72921;BME280;61064;51.654;5.476;2023-03-23T11:57:25;100408.09;;;15.21;70.11
72921;BME280;61064;51.654;5.476;2023-03-23T11:59:53;100319.75;;;14.72;69.80
72921;BME280;61064;51.654;5.476;2023-03-23T12:02:36;100417.47;;;15.44;69.80
72921;BME280;61064;51.654;5.476;2023-03-23T12:11:10;100380.59;;;15.56;69.08
72921;BME280;61064;51.654;5.476;2023-03-23T12:13:47;100358.34;;;15.53;68.91
72921;BME280;61064;51.654;5.476;2023-03-23T12:19:40;100406.56;;;15.94;68.74
72921;BME280;61064;51.654;5.476;2023-03-23T12:22:28;100398.50;;;15.96;68.60
72921;BME280;61064;51.654;5.476;2023-03-23T12:32:45;100371.56;;;16.00;67.72
72921;BME280;61064;51.654;5.476;2023-03-23T12:35:22;100398.56;;;16.31;67.44
72921;BME280;61064;51.654;5.476;2023-03-23T12:38:03;100373.59;;;16.28;67.15
72921;BME280;61064;51.654;5.476;2023-03-23T12:40:41;100396.91;;;16.27;67.08
72921;BME280;61064;51.654;5.476;2023-03-23T12:43:31;100382.47;;;16.31;66.70
72921;BME280;61064;51.654;5.476;2023-03-23T12:48:33;100366.00;;;16.45;65.63
72921;BME280;61064;51.654;5.476;2023-03-23T12:51:13;100363.47;;;16.39;64.87
72921;BME280;61064;51.654;5.476;2023-03-23T12:54:02;100382.22;;;16.40;64.55
72921;BME280;61064;51.654;5.476;2023-03-23T13:02:32;100362.09;;;16.22;65.13
72921;BME280;61064;51.654;5.476;2023-03-23T13:07:29;100367.03;;;16.04;65.26
72921;BME280;61064;51.654;5.476;2023-03-23T13:10:24;100371.41;;;16.06;65.29
72921;BME280;61064;51.654;5.476;2023-03-23T13:12:52;100372.09;;;16.16;65.69
72921;BME280;61064;51.654;5.476;2023-03-23T13:18:17;100396.94;;;16.24;65.36
72921;BME280;61064;51.654;5.476;2023-03-23T13:23:31;100365.28;;;16.01;64.81
72921;BME280;61064;51.654;5.476;2023-03-23T13:26:00;100384.94;;;16.02;65.41
72921;BME280;61064;51.654;5.476;2023-03-23T13:28:28;100421.72;;;15.98;65.19
72921;BME280;61064;51.654;5.476;2023-03-23T13:30:56;100308.56;;;15.38;65.30
72921;BME280;61064;51.654;5.476;2023-03-23T13:33:22;100359.78;;;15.69;65.42
72921;BME280;61064;51.654;5.476;2023-03-23T13:35:49;100397.03;;;15.83;65.71
72921;BME280;61064;51.654;5.476;2023-03-23T13:38:25;100395.41;;;15.75;65.63
72921;BME280;61064;51.654;5.476;2023-03-23T13:40:52;100383.94;;;15.67;66.01
72921;BME280;61064;51.654;5.476;2023-03-23T13:43:29;100390.13;;;15.71;66.47
72921;BME280;61064;51.654;5.476;2023-03-23T13:46:10;100381.47;;;15.58;66.44
72921;BME280;61064;51.654;5.476;2023-03-23T13:48:48;100423.59;;;15.52;67.51
72921;BME280;61064;51.654;5.476;2023-03-23T13:53:50;100390.97;;;14.82;69.29
72921;BME280;61064;51.654;5.476;2023-03-23T13:56:18;100411.63;;;14.76;70.35
72921;BME280;61064;51.654;5.476;2023-03-23T13:59:04;100353.69;;;14.16;71.04
72921;BME280;61064;51.654;5.476;2023-03-23T14:01:35;100406.03;;;14.36;72.10
72921;BME280;61064;51.654;5.476;2023-03-23T14:04:05;100421.22;;;14.32;72.56
72921;BME280;61064;51.654;5.476;2023-03-23T14:06:35;100401.03;;;14.14;73.12
72921;BME280;61064;51.654;5.476;2023-03-23T14:09:06;100358.97;;;13.64;73.62
72921;BME280;61064;51.654;5.476;2023-03-23T14:11:49;100371.16;;;13.82;74.14
72921;BME280;61064;51.654;5.476;2023-03-23T14:14:29;100410.94;;;14.06;74.36
72921;BME280;61064;51.654;5.476;2023-03-23T14:17:07;100379.81;;;14.01;74.44
72921;BME280;61064;51.654;5.476;2023-03-23T14:19:38;100396.50;;;14.16;74.85